createdAt,value
2018-03-06T05:00:44.457Z,985.43
2018-03-06T05:01:09.937Z,985.4
2018-03-06T05:01:35.522Z,985.42
2018-03-06T05:02:00.938Z,985.42
2018-03-06T05:02:26.523Z,985.42
2018-03-06T05:02:52.035Z,985.41
2018-03-06T05:03:17.874Z,985.39
2018-03-06T05:03:43.346Z,985.42
2018-03-06T05:04:08.942Z,985.4
2018-03-06T05:04:34.448Z,985.43
2018-03-06T05:04:59.917Z,985.4
2018-03-06T05:05:25.400Z,985.37
2018-03-06T05:05:50.872Z,985.42
2018-03-06T05:06:16.404Z,985.39
2018-03-06T05:06:41.888Z,985.45
2018-03-06T05:07:07.421Z,985.43
2018-03-06T05:07:32.894Z,985.45
2018-03-06T05:07:58.381Z,985.41
2018-03-06T05:08:23.889Z,985.41
2018-03-06T05:08:49.364Z,985.4
2018-03-06T05:09:14.838Z,985.43
2018-03-06T05:09:40.297Z,985.44
2018-03-06T05:10:05.777Z,985.42
2018-03-06T05:10:31.264Z,985.44
2018-03-06T05:10:56.765Z,985.42
2018-03-06T05:11:22.282Z,985.41
2018-03-06T05:11:47.719Z,985.44
2018-03-06T05:12:13.202Z,985.46
2018-03-06T05:12:38.654Z,985.43
2018-03-06T05:13:04.132Z,985.41
2018-03-06T05:13:29.636Z,985.43
2018-03-06T05:13:55.137Z,985.46
2018-03-06T05:14:20.597Z,985.44
2018-03-06T05:14:46.097Z,985.44
2018-03-06T05:15:11.579Z,985.49
2018-03-06T05:15:37.042Z,985.45
2018-03-06T05:16:02.572Z,985.46
2018-03-06T05:16:28.021Z,985.49
2018-03-06T05:16:53.568Z,985.44
2018-03-06T05:17:19.107Z,985.46
2018-03-06T05:17:44.566Z,985.46
2018-03-06T05:18:10.121Z,985.45
2018-03-06T05:18:35.620Z,985.47
2018-03-06T05:19:01.158Z,985.47
2018-03-06T05:19:26.631Z,985.46
2018-03-06T05:19:52.112Z,985.48
2018-03-06T05:20:17.619Z,985.47
2018-03-06T05:20:43.101Z,985.49
2018-03-06T05:21:08.585Z,985.46
2018-03-06T05:21:34.070Z,985.5
2018-03-06T05:21:59.589Z,985.49
2018-03-06T05:22:25.072Z,985.49
2018-03-06T05:22:50.564Z,985.51
2018-03-06T05:23:16.141Z,985.51
2018-03-06T05:23:41.649Z,985.5
2018-03-06T05:24:07.155Z,985.52
2018-03-06T05:24:32.652Z,985.48
2018-03-06T05:24:58.209Z,985.51
2018-03-06T05:25:23.705Z,985.54
2018-03-06T05:25:49.213Z,985.49
2018-03-06T05:26:14.729Z,985.48
2018-03-06T05:26:40.201Z,985.51
2018-03-06T05:27:05.661Z,985.49
2018-03-06T05:27:31.191Z,985.5
2018-03-06T05:27:56.753Z,985.5
2018-03-06T05:28:22.227Z,985.49
2018-03-06T05:28:47.685Z,985.53
2018-03-06T05:29:13.196Z,985.52
2018-03-06T05:29:38.727Z,985.55
2018-03-06T05:30:04.170Z,985.53
2018-03-06T05:30:29.705Z,985.52
2018-03-06T05:30:55.196Z,985.51
2018-03-06T05:31:20.682Z,985.53
2018-03-06T05:31:46.172Z,985.52
2018-03-06T05:32:11.651Z,985.51
2018-03-06T05:32:37.139Z,985.56
2018-03-06T05:33:02.634Z,985.53
2018-03-06T05:33:28.151Z,985.56
2018-03-06T05:33:53.606Z,985.55
2018-03-06T05:34:19.116Z,985.52
2018-03-06T05:34:44.624Z,985.56
2018-03-06T05:35:10.140Z,985.56
2018-03-06T05:35:35.625Z,985.56
2018-03-06T05:36:01.247Z,985.5
2018-03-06T05:36:26.764Z,985.57
2018-03-06T05:36:52.292Z,985.54
2018-03-06T05:37:17.952Z,985.56
2018-03-06T05:37:43.506Z,985.57
2018-03-06T05:38:09.015Z,985.53
2018-03-06T05:38:34.511Z,985.53
2018-03-06T05:39:00.115Z,985.55
2018-03-06T05:39:25.591Z,985.59
2018-03-06T05:39:51.052Z,985.57
2018-03-06T05:40:16.541Z,985.57
2018-03-06T05:40:41.985Z,985.51
2018-03-06T05:41:07.544Z,985.58
2018-03-06T05:41:33.104Z,985.57
2018-03-06T05:41:58.601Z,985.57
2018-03-06T05:42:24.129Z,985.52
2018-03-06T05:42:49.684Z,985.53
2018-03-06T05:43:15.184Z,985.55
2018-03-06T05:43:40.707Z,985.57
2018-03-06T05:44:06.313Z,985.53
2018-03-06T05:44:31.849Z,985.56
2018-03-06T05:44:57.330Z,985.55
2018-03-06T05:45:22.850Z,985.54
2018-03-06T05:45:48.317Z,985.55
2018-03-06T05:46:13.829Z,985.55
2018-03-06T05:46:39.398Z,985.54
2018-03-06T05:47:04.823Z,985.54
2018-03-06T05:47:30.296Z,985.54
2018-03-06T05:47:55.768Z,985.51
2018-03-06T05:48:21.255Z,985.55
2018-03-06T05:48:46.856Z,985.53
2018-03-06T05:49:12.358Z,985.56
2018-03-06T05:49:37.834Z,985.54
2018-03-06T05:50:03.462Z,985.52
2018-03-06T05:50:29.083Z,985.57
2018-03-06T05:50:54.635Z,985.52
2018-03-06T05:51:20.158Z,985.52
2018-03-06T05:51:45.663Z,985.57
2018-03-06T05:52:11.142Z,985.52
2018-03-06T05:52:36.950Z,985.55
2018-03-06T05:53:02.537Z,985.56
2018-03-06T05:53:28.112Z,985.49
2018-03-06T05:53:53.798Z,985.52
2018-03-06T05:54:19.302Z,985.5
2018-03-06T05:54:44.833Z,985.48
2018-03-06T05:55:10.527Z,985.56
2018-03-06T05:55:35.990Z,985.53
2018-03-06T05:56:01.436Z,985.55
2018-03-06T05:56:26.893Z,985.47
2018-03-06T05:56:52.323Z,985.5
2018-03-06T05:57:17.846Z,985.49
2018-03-06T05:57:43.294Z,985.52
2018-03-06T05:58:08.734Z,985.47
2018-03-06T05:58:34.226Z,985.53
2018-03-06T05:58:59.722Z,985.52
2018-03-06T05:59:25.185Z,985.51
2018-03-06T05:59:50.613Z,985.52
2018-03-06T06:00:16.099Z,985.5
2018-03-06T06:00:41.550Z,985.48
2018-03-06T06:01:07.049Z,985.48
2018-03-06T06:01:32.481Z,985.51
2018-03-06T06:01:57.988Z,985.51
2018-03-06T06:02:23.429Z,985.55
2018-03-06T06:02:48.891Z,985.53
2018-03-06T06:03:14.342Z,985.5
2018-03-06T06:03:39.913Z,985.49
2018-03-06T06:04:05.317Z,985.58
2018-03-06T06:04:30.826Z,985.56
2018-03-06T06:04:56.306Z,985.55
2018-03-06T06:05:21.744Z,985.54
2018-03-06T06:05:47.230Z,985.54
2018-03-06T06:06:12.704Z,985.55
2018-03-06T06:06:38.229Z,985.58
2018-03-06T06:07:03.618Z,985.53
2018-03-06T06:07:29.150Z,985.59
2018-03-06T06:07:54.648Z,985.55
2018-03-06T06:08:20.021Z,985.54
2018-03-06T06:08:45.536Z,985.53
2018-03-06T06:09:10.957Z,985.58
2018-03-06T06:09:36.496Z,985.6
2018-03-06T06:10:01.951Z,985.55
2018-03-06T06:10:27.564Z,985.53
2018-03-06T06:10:52.940Z,985.56
2018-03-06T06:11:18.399Z,985.61
2018-03-06T06:11:43.949Z,985.58
2018-03-06T06:12:09.452Z,985.56
2018-03-06T06:12:34.915Z,985.63
2018-03-06T06:13:00.383Z,985.62
2018-03-06T06:13:25.982Z,985.64
2018-03-06T06:13:51.375Z,985.66
2018-03-06T06:14:16.879Z,985.56
2018-03-06T06:14:42.362Z,985.58
2018-03-06T06:15:07.860Z,985.62
2018-03-06T06:15:33.322Z,985.62
2018-03-06T06:15:58.858Z,985.6
2018-03-06T06:16:24.307Z,985.64
2018-03-06T06:16:49.814Z,985.63
2018-03-06T06:17:15.217Z,985.64
2018-03-06T06:17:40.741Z,985.63
2018-03-06T06:18:06.325Z,985.64
2018-03-06T06:18:31.844Z,985.62
2018-03-06T06:18:57.448Z,985.61
2018-03-06T06:19:22.982Z,985.65
2018-03-06T06:19:48.476Z,985.67
2018-03-06T06:20:13.939Z,985.66
2018-03-06T06:20:39.411Z,985.66
2018-03-06T06:21:04.938Z,985.62
2018-03-06T06:21:30.424Z,985.63
2018-03-06T06:21:55.918Z,985.63
2018-03-06T06:22:21.381Z,985.61
2018-03-06T06:22:46.899Z,985.61
2018-03-06T06:23:12.362Z,985.63
2018-03-06T06:23:37.832Z,985.6
2018-03-06T06:24:03.318Z,985.62
2018-03-06T06:24:28.869Z,985.63
2018-03-06T06:24:54.271Z,985.65
2018-03-06T06:25:19.759Z,985.62
2018-03-06T06:25:45.255Z,985.58
2018-03-06T06:26:10.755Z,985.63
2018-03-06T06:26:36.241Z,985.63
2018-03-06T06:27:01.705Z,985.63
2018-03-06T06:27:27.208Z,985.64
2018-03-06T06:27:52.688Z,985.66
2018-03-06T06:28:18.210Z,985.67
2018-03-06T06:28:43.800Z,985.67
2018-03-06T06:29:09.276Z,985.65
2018-03-06T06:29:34.744Z,985.68
2018-03-06T06:30:00.234Z,985.66
2018-03-06T06:31:14.029Z,985.64
2018-03-06T06:31:39.511Z,985.69
2018-03-06T06:32:04.971Z,985.66
2018-03-06T06:32:30.553Z,985.66
2018-03-06T06:32:55.980Z,985.68
2018-03-06T06:33:21.655Z,985.63
2018-03-06T06:33:47.089Z,985.64
2018-03-06T06:34:12.570Z,985.65
2018-03-06T06:34:38.071Z,985.65
2018-03-06T06:35:03.532Z,985.66
2018-03-06T06:35:29.071Z,985.62
2018-03-06T06:35:54.538Z,985.65
2018-03-06T06:36:19.999Z,985.64
2018-03-06T06:36:45.530Z,985.69
2018-03-06T06:37:11.042Z,985.67
2018-03-06T06:37:36.516Z,985.62
2018-03-06T06:38:02.023Z,985.68
2018-03-06T06:38:27.499Z,985.68
2018-03-06T06:38:53.050Z,985.66
2018-03-06T06:39:18.606Z,985.64
2018-03-06T06:39:44.106Z,985.67
2018-03-06T06:40:09.710Z,985.67
2018-03-06T06:40:35.433Z,985.67
2018-03-06T06:41:00.969Z,985.67
2018-03-06T06:41:26.415Z,985.67
2018-03-06T06:41:51.914Z,985.67
2018-03-06T06:42:17.446Z,985.7
2018-03-06T06:42:42.988Z,985.69
2018-03-06T06:43:08.443Z,985.69
2018-03-06T06:43:33.951Z,985.71
2018-03-06T06:43:59.446Z,985.71
2018-03-06T06:44:24.895Z,985.67
2018-03-06T06:44:50.404Z,985.67
2018-03-06T06:45:15.837Z,985.69
2018-03-06T06:45:41.308Z,985.69
2018-03-06T06:46:06.756Z,985.69
2018-03-06T06:46:32.212Z,985.66
2018-03-06T06:46:57.705Z,985.68
2018-03-06T06:47:23.246Z,985.67
2018-03-06T06:47:48.726Z,985.69
2018-03-06T06:48:14.223Z,985.63
2018-03-06T06:48:39.684Z,985.66
2018-03-06T06:49:05.176Z,985.68
2018-03-06T06:49:30.635Z,985.69
2018-03-06T06:49:56.137Z,985.67
2018-03-06T06:50:21.699Z,985.66
2018-03-06T06:50:47.181Z,985.68
2018-03-06T06:51:12.708Z,985.69
2018-03-06T06:51:38.208Z,985.69
2018-03-06T06:52:03.810Z,985.67
2018-03-06T06:52:29.259Z,985.65
2018-03-06T06:52:54.774Z,985.65
2018-03-06T06:53:20.305Z,985.66
2018-03-06T06:53:45.809Z,985.65
2018-03-06T06:54:11.326Z,985.66
2018-03-06T06:54:36.783Z,985.64
2018-03-06T06:55:02.248Z,985.63
2018-03-06T06:55:27.723Z,985.68
2018-03-06T06:55:53.248Z,985.64
2018-03-06T06:56:18.738Z,985.65
2018-03-06T06:56:44.191Z,985.65
2018-03-06T06:57:09.688Z,985.64
2018-03-06T06:57:35.222Z,985.62
2018-03-06T06:58:00.662Z,985.62
2018-03-06T06:58:26.218Z,985.62
2018-03-06T06:58:51.669Z,985.61
2018-03-06T06:59:17.424Z,985.64
2018-03-06T06:59:42.789Z,985.65
2018-03-06T07:00:08.342Z,985.6
2018-03-06T07:00:33.756Z,985.66
2018-03-06T07:00:59.276Z,985.64
2018-03-06T07:01:24.774Z,985.66
2018-03-06T07:01:50.240Z,985.68
2018-03-06T07:02:15.704Z,985.67
2018-03-06T07:02:41.239Z,985.72
2018-03-06T07:03:06.732Z,985.7
2018-03-06T07:03:32.150Z,985.66
2018-03-06T07:03:57.659Z,985.68
2018-03-06T07:04:23.193Z,985.72
2018-03-06T07:04:48.638Z,985.68
2018-03-06T07:05:14.077Z,985.7
2018-03-06T07:05:39.583Z,985.72
2018-03-06T07:06:05.047Z,985.73
2018-03-06T07:06:30.511Z,985.74
2018-03-06T07:06:56.028Z,985.79
2018-03-06T07:07:21.514Z,985.74
2018-03-06T07:07:46.988Z,985.74
2018-03-06T07:08:12.453Z,985.76
2018-03-06T07:08:37.859Z,985.74
2018-03-06T07:09:03.468Z,985.77
2018-03-06T07:09:28.860Z,985.73
2018-03-06T07:09:54.372Z,985.76
2018-03-06T07:10:19.918Z,985.71
2018-03-06T07:10:45.407Z,985.71
2018-03-06T07:11:10.851Z,985.69
2018-03-06T07:11:36.379Z,985.67
2018-03-06T07:12:01.782Z,985.67
2018-03-06T07:12:27.250Z,985.69
2018-03-06T07:12:52.734Z,985.67
2018-03-06T07:13:18.255Z,985.67
2018-03-06T07:13:43.642Z,985.65
2018-03-06T07:14:09.139Z,985.65
2018-03-06T07:14:34.603Z,985.64
2018-03-06T07:15:00.097Z,985.67
2018-03-06T07:15:25.594Z,985.64
2018-03-06T07:15:51.100Z,985.62
2018-03-06T07:16:16.557Z,985.63
2018-03-06T07:16:42.029Z,985.64
2018-03-06T07:17:07.492Z,985.65
2018-03-06T07:17:32.969Z,985.66
2018-03-06T07:17:58.459Z,985.64
2018-03-06T07:18:23.892Z,985.71
2018-03-06T07:18:49.378Z,985.66
2018-03-06T07:19:14.814Z,985.64
2018-03-06T07:19:40.308Z,985.65
2018-03-06T07:20:05.811Z,985.69
2018-03-06T07:20:31.353Z,985.64
2018-03-06T07:20:56.805Z,985.66
2018-03-06T07:21:22.297Z,985.68
2018-03-06T07:21:47.822Z,985.67
2018-03-06T07:22:13.268Z,985.64
2018-03-06T07:22:38.761Z,985.67
2018-03-06T07:23:04.213Z,985.65
2018-03-06T07:23:29.689Z,985.66
2018-03-06T07:23:55.176Z,985.68
2018-03-06T07:24:20.650Z,985.7
2018-03-06T07:24:46.129Z,985.66
2018-03-06T07:25:11.643Z,985.7
2018-03-06T07:25:37.134Z,985.72
2018-03-06T07:26:02.663Z,985.72
2018-03-06T07:26:28.157Z,985.68
2018-03-06T07:26:53.691Z,985.7
2018-03-06T07:27:19.122Z,985.72
2018-03-06T07:27:44.624Z,985.67
2018-03-06T07:28:44.147Z,985.69
2018-03-06T07:29:09.691Z,985.74
2018-03-06T07:29:35.156Z,985.72
2018-03-06T07:30:00.638Z,985.72
2018-03-06T07:30:26.081Z,985.72
2018-03-06T07:30:51.549Z,985.71
2018-03-06T07:31:17.015Z,985.74
2018-03-06T07:31:42.446Z,985.72
2018-03-06T07:32:07.915Z,985.72
2018-03-06T07:32:33.379Z,985.72
2018-03-06T07:32:58.854Z,985.74
2018-03-06T07:33:24.343Z,985.7
2018-03-06T07:33:49.827Z,985.74
2018-03-06T07:35:03.668Z,985.71
2018-03-06T07:35:29.161Z,985.72
2018-03-06T07:35:54.684Z,985.68
2018-03-06T07:36:20.105Z,985.75
2018-03-06T07:36:45.665Z,985.7
2018-03-06T07:37:11.144Z,985.67
2018-03-06T07:37:36.675Z,985.69
2018-03-06T07:38:02.165Z,985.69
2018-03-06T07:38:27.657Z,985.74
2018-03-06T07:38:53.162Z,985.71
2018-03-06T07:39:18.658Z,985.7
2018-03-06T07:39:44.138Z,985.71
2018-03-06T07:40:09.610Z,985.74
2018-03-06T07:40:35.113Z,985.71
2018-03-06T07:41:00.541Z,985.64
2018-03-06T07:41:26.046Z,985.65
2018-03-06T07:41:51.608Z,985.66
2018-03-06T07:42:17.022Z,985.66
2018-03-06T07:42:42.519Z,985.65
2018-03-06T07:43:08.035Z,985.61
2018-03-06T07:43:33.581Z,985.61
2018-03-06T07:43:59.057Z,985.65
2018-03-06T07:44:24.612Z,985.62
2018-03-06T07:44:50.115Z,985.65
2018-03-06T07:45:15.614Z,985.61
2018-03-06T07:45:41.086Z,985.61
2018-03-06T07:46:06.559Z,985.59
2018-03-06T07:46:32.047Z,985.59
2018-03-06T07:46:57.572Z,985.61
2018-03-06T07:47:23.041Z,985.63
2018-03-06T07:47:48.538Z,985.6
2018-03-06T07:48:14.001Z,985.6
2018-03-06T07:48:39.542Z,985.62
2018-03-06T07:49:05.032Z,985.6
2018-03-06T07:49:30.511Z,985.62
2018-03-06T07:49:56.004Z,985.64
2018-03-06T07:50:21.484Z,985.64
2018-03-06T07:50:47.024Z,985.63
2018-03-06T07:51:12.558Z,985.63
2018-03-06T07:51:37.988Z,985.65
2018-03-06T07:52:03.534Z,985.61
2018-03-06T07:52:29.056Z,985.62
2018-03-06T07:52:54.580Z,985.62
2018-03-06T07:53:20.044Z,985.6
2018-03-06T07:53:45.550Z,985.61
2018-03-06T07:54:11.091Z,985.54
2018-03-06T07:54:36.518Z,985.6
2018-03-06T07:55:02.049Z,985.61
2018-03-06T07:55:27.474Z,985.59
2018-03-06T07:55:52.936Z,985.56
2018-03-06T07:56:18.422Z,985.63
2018-03-06T07:56:43.902Z,985.61
2018-03-06T07:57:09.369Z,985.63
2018-03-06T07:57:34.821Z,985.65
2018-03-06T07:58:00.296Z,985.66
2018-03-06T07:58:25.817Z,985.65
2018-03-06T07:58:51.316Z,985.67
2018-03-06T07:59:16.807Z,985.65
2018-03-06T07:59:42.271Z,985.63
2018-03-06T08:00:07.765Z,985.65
2018-03-06T08:00:33.280Z,985.63
2018-03-06T08:00:58.750Z,985.63
2018-03-06T08:01:24.236Z,985.67
2018-03-06T08:01:49.725Z,985.63
2018-03-06T08:02:15.223Z,985.62
2018-03-06T08:02:40.719Z,985.66
2018-03-06T08:03:06.190Z,985.63
2018-03-06T08:03:31.655Z,985.6
2018-03-06T08:03:57.145Z,985.61
2018-03-06T08:04:22.638Z,985.62
2018-03-06T08:04:48.073Z,985.65
2018-03-06T08:05:13.566Z,985.64
2018-03-06T08:05:39.084Z,985.61
2018-03-06T08:06:04.587Z,985.62
2018-03-06T08:06:30.126Z,985.65
2018-03-06T08:06:55.563Z,985.62
2018-03-06T08:07:21.070Z,985.63
2018-03-06T08:07:46.561Z,985.6
2018-03-06T08:09:05.512Z,985.6
2018-03-06T08:09:31.046Z,985.55
2018-03-06T08:09:56.499Z,985.53
2018-03-06T08:10:21.962Z,985.58
2018-03-06T08:10:47.431Z,985.51
2018-03-06T08:11:12.896Z,985.53
2018-03-06T08:11:38.408Z,985.5
2018-03-06T08:12:03.822Z,985.52
2018-03-06T08:12:29.278Z,985.5
2018-03-06T08:12:54.742Z,985.45
2018-03-06T08:13:20.209Z,985.49
2018-03-06T08:13:45.681Z,985.49
2018-03-06T08:14:11.206Z,985.49
2018-03-06T08:14:36.683Z,985.49
2018-03-06T08:15:02.212Z,985.47
2018-03-06T08:16:05.868Z,985.47
2018-03-06T08:16:31.339Z,985.49
2018-03-06T08:16:56.831Z,985.47
2018-03-06T08:17:22.305Z,985.48
2018-03-06T08:17:47.854Z,985.41
2018-03-06T08:18:13.326Z,985.44
2018-03-06T08:18:38.823Z,985.44
2018-03-06T08:19:04.340Z,985.48
2018-03-06T08:19:29.844Z,985.46
2018-03-06T08:19:55.351Z,985.39
2018-03-06T08:20:20.823Z,985.38
2018-03-06T08:20:46.319Z,985.37
2018-03-06T08:21:11.781Z,985.4
2018-03-06T08:21:37.263Z,985.36
2018-03-06T08:22:02.757Z,985.42
2018-03-06T08:22:28.241Z,985.38
2018-03-06T08:22:53.727Z,985.4
2018-03-06T08:23:19.185Z,985.41
2018-03-06T08:23:44.707Z,985.37
2018-03-06T08:24:10.250Z,985.39
2018-03-06T08:24:35.705Z,985.38
2018-03-06T08:25:01.203Z,985.41
2018-03-06T08:25:26.697Z,985.42
2018-03-06T08:25:52.194Z,985.42
2018-03-06T08:26:17.680Z,985.43
2018-03-06T08:26:43.184Z,985.42
2018-03-06T08:27:08.659Z,985.42
2018-03-06T08:27:34.136Z,985.48
2018-03-06T08:27:59.628Z,985.45
2018-03-06T08:28:25.122Z,985.48
2018-03-06T08:28:50.592Z,985.47
2018-03-06T08:29:16.079Z,985.53
2018-03-06T08:29:41.598Z,985.5
2018-03-06T08:30:07.120Z,985.52
2018-03-06T08:30:32.597Z,985.5
2018-03-06T08:30:58.135Z,985.47
2018-03-06T08:31:23.648Z,985.46
2018-03-06T08:31:49.169Z,985.52
2018-03-06T08:32:14.658Z,985.48
2018-03-06T08:32:40.175Z,985.45
2018-03-06T08:33:05.650Z,985.46
2018-03-06T08:33:31.175Z,985.47
2018-03-06T08:33:56.644Z,985.5
2018-03-06T08:35:05.357Z,985.43
2018-03-06T08:35:30.850Z,985.45
2018-03-06T08:35:56.304Z,985.46
2018-03-06T08:36:21.810Z,985.46
2018-03-06T08:36:47.287Z,985.5
2018-03-06T08:37:12.757Z,985.48
2018-03-06T08:37:38.314Z,985.49
2018-03-06T08:38:03.834Z,985.48
2018-03-06T08:38:29.318Z,985.49
2018-03-06T08:38:54.789Z,985.46
2018-03-06T08:40:03.466Z,985.47
2018-03-06T08:40:28.939Z,985.49
2018-03-06T08:40:54.455Z,985.49
2018-03-06T08:41:19.964Z,985.46
2018-03-06T08:41:45.447Z,985.46
2018-03-06T08:42:10.937Z,985.43
2018-03-06T08:42:36.426Z,985.44
2018-03-06T08:43:01.975Z,985.48
2018-03-06T08:43:27.445Z,985.46
2018-03-06T08:43:52.949Z,985.44
2018-03-06T08:44:18.472Z,985.46
2018-03-06T08:44:43.989Z,985.44
2018-03-06T08:45:09.533Z,985.46
2018-03-06T08:45:34.960Z,985.47
2018-03-06T08:46:00.469Z,985.52
2018-03-06T08:46:25.917Z,985.4
2018-03-06T08:46:51.416Z,985.44
2018-03-06T08:47:16.907Z,985.46
2018-03-06T08:47:42.401Z,985.48
2018-03-06T08:48:07.886Z,985.44
2018-03-06T08:48:33.426Z,985.46
2018-03-06T08:48:58.980Z,985.43
2018-03-06T08:49:24.470Z,985.45
2018-03-06T08:49:49.965Z,985.42
2018-03-06T08:51:08.911Z,985.43
2018-03-06T08:51:34.412Z,985.41
2018-03-06T08:51:59.891Z,985.43
2018-03-06T08:52:25.349Z,985.46
2018-03-06T08:52:50.862Z,985.43
2018-03-06T08:53:16.333Z,985.43
2018-03-06T08:53:41.872Z,985.46
2018-03-06T08:54:50.604Z,985.5
2018-03-06T08:55:16.084Z,985.47
2018-03-06T08:55:41.549Z,985.5
2018-03-06T08:56:07.058Z,985.47
2018-03-06T08:56:32.540Z,985.48
2018-03-06T08:56:58.147Z,985.51
2018-03-06T08:57:23.684Z,985.45
2018-03-06T08:57:49.244Z,985.49
2018-03-06T08:58:14.612Z,985.5
2018-03-06T08:58:40.108Z,985.51
2018-03-06T08:59:05.605Z,985.48
2018-03-06T08:59:31.081Z,985.5
2018-03-06T08:59:56.673Z,985.43
2018-03-06T09:00:22.267Z,985.43
2018-03-06T09:00:47.701Z,985.44
2018-03-06T09:01:13.174Z,985.44
2018-03-06T09:01:38.680Z,985.43
2018-03-06T09:02:04.285Z,985.42
2018-03-06T09:02:29.710Z,985.45
2018-03-06T09:02:55.218Z,985.43
2018-03-06T09:03:20.831Z,985.41
2018-03-06T09:03:46.400Z,985.43
2018-03-06T09:04:11.888Z,985.41
2018-03-06T09:04:37.406Z,985.43
2018-03-06T09:05:03.099Z,985.44
2018-03-06T09:06:11.847Z,985.42
2018-03-06T09:06:37.355Z,985.41
2018-03-06T09:07:02.840Z,985.4
2018-03-06T09:07:28.379Z,985.4
2018-03-06T09:07:53.934Z,985.43
2018-03-06T09:08:19.483Z,985.45
2018-03-06T09:08:44.971Z,985.45
2018-03-06T09:09:10.504Z,985.42
2018-03-06T09:09:35.948Z,985.39
2018-03-06T09:10:01.592Z,985.42
2018-03-06T09:10:27.056Z,985.42
2018-03-06T09:10:52.506Z,985.44
2018-03-06T09:11:17.968Z,985.41
2018-03-06T09:11:43.515Z,985.43
2018-03-06T09:12:08.983Z,985.44
2018-03-06T09:12:34.524Z,985.41
2018-03-06T09:12:59.979Z,985.44
2018-03-06T09:13:25.604Z,985.39
2018-03-06T09:13:51.039Z,985.41
2018-03-06T09:14:16.531Z,985.38
2018-03-06T09:14:41.978Z,985.4
2018-03-06T09:15:07.486Z,985.35
2018-03-06T09:15:33.045Z,985.39
2018-03-06T09:15:58.514Z,985.39
2018-03-06T09:16:24.008Z,985.34
2018-03-06T09:16:49.471Z,985.36
2018-03-06T09:17:14.952Z,985.37
2018-03-06T09:17:40.464Z,985.33
2018-03-06T09:18:05.963Z,985.37
2018-03-06T09:18:31.424Z,985.36
2018-03-06T09:18:56.896Z,985.35
2018-03-06T09:19:22.390Z,985.36
2018-03-06T09:19:47.863Z,985.38
2018-03-06T09:20:13.308Z,985.39
2018-03-06T09:21:11.909Z,985.36
2018-03-06T09:21:37.354Z,985.4
2018-03-06T09:22:02.849Z,985.34
2018-03-06T09:22:28.324Z,985.36
2018-03-06T09:22:53.784Z,985.34
2018-03-06T09:23:19.220Z,985.36
2018-03-06T09:23:44.755Z,985.31
2018-03-06T09:24:10.210Z,985.33
2018-03-06T09:24:35.703Z,985.33
2018-03-06T09:25:01.285Z,985.33
2018-03-06T09:25:26.728Z,985.34
2018-03-06T09:25:52.248Z,985.33
2018-03-06T09:26:17.709Z,985.37
2018-03-06T09:26:43.212Z,985.32
2018-03-06T09:27:08.618Z,985.35
2018-03-06T09:27:34.071Z,985.33
2018-03-06T09:27:59.630Z,985.35
2018-03-06T09:28:25.163Z,985.33
2018-03-06T09:28:50.685Z,985.31
2018-03-06T09:29:16.132Z,985.33
2018-03-06T09:29:41.601Z,985.33
2018-03-06T09:30:07.087Z,985.31
2018-03-06T09:30:32.579Z,985.3
2018-03-06T09:30:58.037Z,985.35
2018-03-06T09:31:23.666Z,985.33
2018-03-06T09:31:48.994Z,985.33
2018-03-06T09:32:14.462Z,985.35
2018-03-06T09:32:40.103Z,985.36
2018-03-06T09:33:05.618Z,985.35
2018-03-06T09:33:31.107Z,985.33
2018-03-06T09:33:56.572Z,985.34
2018-03-06T09:34:22.131Z,985.34
2018-03-06T09:34:47.558Z,985.39
2018-03-06T09:35:13.060Z,985.38
2018-03-06T09:35:38.522Z,985.34
2018-03-06T09:36:04.010Z,985.35
2018-03-06T09:36:29.462Z,985.38
2018-03-06T09:36:54.973Z,985.41
2018-03-06T09:37:20.430Z,985.36
2018-03-06T09:37:45.946Z,985.33
2018-03-06T09:38:11.475Z,985.36
2018-03-06T09:38:36.986Z,985.38
2018-03-06T09:39:02.479Z,985.4
2018-03-06T09:39:27.959Z,985.33
2018-03-06T09:39:53.560Z,985.39
2018-03-06T09:40:18.952Z,985.39
2018-03-06T09:40:44.478Z,985.39
2018-03-06T09:41:10.018Z,985.43
2018-03-06T09:41:35.494Z,985.34
2018-03-06T09:42:00.994Z,985.38
2018-03-06T09:42:26.462Z,985.38
2018-03-06T09:42:51.994Z,985.37
2018-03-06T09:43:17.460Z,985.38
2018-03-06T09:43:42.932Z,985.37
2018-03-06T09:44:08.438Z,985.39
2018-03-06T09:44:34.021Z,985.38
2018-03-06T09:44:59.466Z,985.37
2018-03-06T09:45:24.952Z,985.34
2018-03-06T09:45:50.442Z,985.36
2018-03-06T09:46:15.939Z,985.38
2018-03-06T09:46:41.455Z,985.36
2018-03-06T09:47:06.963Z,985.37
2018-03-06T09:47:32.407Z,985.4
2018-03-06T09:47:57.871Z,985.37
2018-03-06T09:48:23.370Z,985.37
2018-03-06T09:48:48.843Z,985.37
2018-03-06T09:49:14.324Z,985.39
2018-03-06T09:49:39.861Z,985.37
2018-03-06T09:50:05.321Z,985.37
2018-03-06T09:50:30.764Z,985.37
2018-03-06T09:50:56.341Z,985.36
2018-03-06T09:51:21.808Z,985.35
2018-03-06T09:51:47.285Z,985.35
2018-03-06T09:52:12.713Z,985.38
2018-03-06T09:52:38.158Z,985.36
2018-03-06T09:53:03.605Z,985.34
2018-03-06T09:53:29.079Z,985.4
2018-03-06T09:53:54.553Z,985.37
2018-03-06T09:54:20.085Z,985.36
2018-03-06T09:54:45.590Z,985.34
2018-03-06T09:55:11.077Z,985.38
2018-03-06T09:55:36.550Z,985.4
2018-03-06T09:56:02.079Z,985.33
2018-03-06T09:56:27.500Z,985.36
2018-03-06T09:56:52.959Z,985.37
2018-03-06T09:57:18.473Z,985.32
2018-03-06T09:58:27.160Z,985.34
2018-03-06T09:58:52.692Z,985.33
2018-03-06T09:59:18.125Z,985.38
2018-03-06T09:59:43.651Z,985.33
2018-03-06T10:00:09.172Z,985.33
2018-03-06T10:00:34.618Z,985.35
2018-03-06T10:01:00.127Z,985.31
2018-03-06T10:01:25.593Z,985.33
2018-03-06T10:01:51.028Z,985.38
2018-03-06T10:02:16.508Z,985.28
2018-03-06T10:02:41.998Z,985.3
2018-03-06T10:03:07.514Z,985.32
2018-03-06T10:03:32.975Z,985.29
2018-03-06T10:04:51.895Z,985.29
2018-03-06T10:05:17.409Z,985.25
2018-03-06T10:05:42.890Z,985.28
2018-03-06T10:06:08.368Z,985.29
2018-03-06T10:06:33.830Z,985.27
2018-03-06T10:06:59.328Z,985.32
2018-03-06T10:07:24.819Z,985.29
2018-03-06T10:07:50.331Z,985.31
2018-03-06T10:08:53.906Z,985.33
2018-03-06T10:09:19.414Z,985.27
2018-03-06T10:09:44.903Z,985.25
2018-03-06T10:10:10.385Z,985.27
2018-03-06T10:10:35.824Z,985.26
2018-03-06T10:11:01.304Z,985.24
2018-03-06T10:11:26.794Z,985.27
2018-03-06T10:11:52.301Z,985.25
2018-03-06T10:12:17.802Z,985.28
2018-03-06T10:12:43.272Z,985.23
2018-03-06T10:13:51.975Z,985.18
2018-03-06T10:14:17.498Z,985.18
2018-03-06T10:14:43.008Z,985.16
2018-03-06T10:15:08.482Z,985.17
2018-03-06T10:16:07.047Z,985.15
2018-03-06T10:16:32.569Z,985.14
2018-03-06T10:16:58.041Z,985.14
2018-03-06T10:17:23.555Z,985.17
2018-03-06T10:17:49.046Z,985.15
2018-03-06T10:18:14.551Z,985.22
2018-03-06T10:18:40.124Z,985.16
2018-03-06T10:19:05.572Z,985.15
2018-03-06T10:19:31.056Z,985.19
2018-03-06T10:19:56.547Z,985.16
2018-03-06T10:20:22.041Z,985.18
2018-03-06T10:20:47.439Z,985.15
2018-03-06T10:21:45.972Z,985.16
2018-03-06T10:22:11.453Z,985.15
2018-03-06T10:22:36.952Z,985.09
2018-03-06T10:23:02.445Z,985.11
2018-03-06T10:23:27.908Z,985.12
2018-03-06T10:23:53.432Z,985.13
2018-03-06T10:24:18.940Z,985.11
2018-03-06T10:24:44.486Z,985.1
2018-03-06T10:25:09.988Z,985.09
2018-03-06T10:25:35.459Z,985.15
2018-03-06T10:26:00.928Z,985.1
2018-03-06T10:26:26.431Z,985.09
2018-03-06T10:26:51.964Z,985.1
2018-03-06T10:27:17.460Z,985.1
2018-03-06T10:27:42.937Z,985.11
2018-03-06T10:28:08.444Z,985.09
2018-03-06T10:28:33.850Z,985.09
2018-03-06T10:28:59.335Z,985.1
2018-03-06T10:29:24.824Z,985.11
2018-03-06T10:29:50.314Z,985.1
2018-03-06T10:30:15.768Z,985.11
2018-03-06T10:30:41.288Z,985.09
2018-03-06T10:31:06.822Z,985.09
2018-03-06T10:31:32.339Z,985.05